createdAt,value
2023-05-08T00:01:31.613Z,12.00
2023-05-08T00:03:58.842Z,12.25
2023-05-08T00:06:27.702Z,11.30
2023-05-08T00:08:55.656Z,9.40
2023-05-08T00:11:22.827Z,10.85
2023-05-08T00:13:49.832Z,10.93
2023-05-08T00:16:17.207Z,10.65
2023-05-08T00:18:44.384Z,11.90
2023-05-08T00:21:14.923Z,12.40
2023-05-08T00:23:41.939Z,11.68
2023-05-08T00:26:08.925Z,10.77
2023-05-08T00:28:35.882Z,9.25
2023-05-08T00:31:03.108Z,11.00
2023-05-08T00:33:55.998Z,12.65
2023-05-08T00:36:23.007Z,10.73
2023-05-08T00:38:50.183Z,10.95
2023-05-08T00:41:17.171Z,11.57
2023-05-08T00:43:44.437Z,11.25
2023-05-08T00:46:26.571Z,13.10
2023-05-08T00:48:53.985Z,10.73
2023-05-08T00:51:21.977Z,12.20
2023-05-08T00:53:49.576Z,11.65
2023-05-08T00:56:17.826Z,15.18
2023-05-08T00:58:45.843Z,17.15
2023-05-08T01:01:13.253Z,13.77
2023-05-08T01:03:41.195Z,12.02
2023-05-08T01:06:08.800Z,13.07
2023-05-08T01:08:36.024Z,11.00
2023-05-08T01:11:22.876Z,10.57
2023-05-08T01:14:08.770Z,10.60
2023-05-08T01:17:04.299Z,10.07
2023-05-08T01:19:49.433Z,13.48
2023-05-08T01:22:39.644Z,12.65
2023-05-08T01:25:06.853Z,13.57
2023-05-08T01:28:11.466Z,10.77
2023-05-08T01:30:53.399Z,10.85
2023-05-08T01:33:44.335Z,14.20
2023-05-08T01:36:20.879Z,12.18
2023-05-08T01:38:50.990Z,10.15
2023-05-08T01:41:27.411Z,12.93
2023-05-08T01:43:57.629Z,12.63
2023-05-08T01:46:27.861Z,11.98
2023-05-08T01:49:13.058Z,11.90
2023-05-08T01:51:45.090Z,13.23
2023-05-08T01:54:16.760Z,11.13
2023-05-08T01:56:46.225Z,9.57
2023-05-08T01:59:17.113Z,10.40
2023-05-08T02:01:45.822Z,7.88
2023-05-08T02:04:15.250Z,9.50
2023-05-08T02:06:43.218Z,10.35
2023-05-08T02:09:12.070Z,11.38
2023-05-08T02:11:41.628Z,9.63
2023-05-08T02:14:09.861Z,9.15
2023-05-08T02:16:38.082Z,9.80
2023-05-08T02:19:05.875Z,10.77
2023-05-08T02:21:34.031Z,10.73
2023-05-08T02:24:03.321Z,11.48
2023-05-08T02:26:32.250Z,8.95
2023-05-08T02:29:00.566Z,9.50
2023-05-08T02:31:29.662Z,10.25
2023-05-08T02:33:58.452Z,9.70
2023-05-08T02:36:28.538Z,11.02
2023-05-08T02:39:00.250Z,10.82
2023-05-08T02:41:32.286Z,12.07
2023-05-08T02:43:59.744Z,10.68
2023-05-08T02:46:35.219Z,13.90
2023-05-08T02:49:08.194Z,11.20
2023-05-08T02:51:47.913Z,10.45
2023-05-08T02:54:23.293Z,11.38
2023-05-08T02:57:03.950Z,12.25
2023-05-08T02:59:45.610Z,9.27
2023-05-08T03:02:18.337Z,9.93
2023-05-08T03:04:51.643Z,11.18
2023-05-08T03:07:23.282Z,10.77
2023-05-08T03:09:57.201Z,9.38
2023-05-08T03:12:28.146Z,12.02
2023-05-08T03:15:08.840Z,10.70
2023-05-08T03:17:38.523Z,11.88
2023-05-08T03:20:08.480Z,9.60
2023-05-08T03:22:37.258Z,11.10
2023-05-08T03:25:07.239Z,13.73
2023-05-08T03:27:37.674Z,10.70
2023-05-08T03:30:06.365Z,9.73
2023-05-08T03:32:37.398Z,11.48
2023-05-08T03:35:06.647Z,10.27
2023-05-08T03:37:33.775Z,12.27
2023-05-08T03:40:01.193Z,11.02
2023-05-08T03:42:28.707Z,11.07
2023-05-08T03:45:06.011Z,12.77
2023-05-08T03:47:36.247Z,13.93
2023-05-08T03:50:03.801Z,13.45
2023-05-08T03:52:32.869Z,11.60
2023-05-08T03:55:01.734Z,11.20
2023-05-08T03:57:35.612Z,12.65
2023-05-08T04:00:06.701Z,13.57
2023-05-08T04:03:11.292Z,13.10
2023-05-08T04:05:58.281Z,14.20
2023-05-08T04:08:34.116Z,14.57
2023-05-08T04:11:12.306Z,14.88
2023-05-08T04:13:46.341Z,14.10
2023-05-08T04:16:38.685Z,13.38
2023-05-08T04:19:14.828Z,15.57
2023-05-08T04:21:43.704Z,12.77
2023-05-08T04:24:14.942Z,13.03
2023-05-08T04:26:44.352Z,14.38
2023-05-08T04:29:11.914Z,13.52
2023-05-08T04:31:41.127Z,11.15
2023-05-08T04:34:09.522Z,12.75
2023-05-08T04:36:37.809Z,13.13
2023-05-08T04:39:06.633Z,11.70
2023-05-08T04:41:35.241Z,17.30
2023-05-08T04:44:04.557Z,12.23
2023-05-08T04:46:31.694Z,12.57
2023-05-08T04:48:59.038Z,14.02
2023-05-08T04:51:29.679Z,13.77
2023-05-08T04:53:56.690Z,10.82
2023-05-08T04:56:23.721Z,11.77
2023-05-08T04:58:51.526Z,12.93
2023-05-08T05:01:19.019Z,12.77
2023-05-08T05:03:46.110Z,11.35
2023-05-08T05:06:13.597Z,10.90
2023-05-08T05:08:40.725Z,11.68
2023-05-08T05:11:07.929Z,13.57
2023-05-08T05:13:34.984Z,10.93
2023-05-08T05:16:02.818Z,11.38
2023-05-08T05:18:30.215Z,12.57
2023-05-08T05:20:59.298Z,11.10
2023-05-08T05:23:27.362Z,12.23
2023-05-08T05:25:54.421Z,12.88
2023-05-08T05:28:21.719Z,11.45
2023-05-08T05:30:50.465Z,11.18
2023-05-08T05:33:18.186Z,12.27
2023-05-08T05:35:45.362Z,12.30
2023-05-08T05:38:19.528Z,12.68
2023-05-08T05:40:46.717Z,12.82
2023-05-08T05:43:13.965Z,11.80
2023-05-08T05:45:41.418Z,11.43
2023-05-08T05:48:08.900Z,11.07
2023-05-08T05:50:36.270Z,10.00
2023-05-08T05:53:03.461Z,13.65
2023-05-08T05:55:30.799Z,12.30
2023-05-08T05:57:58.716Z,11.75
2023-05-08T06:00:26.003Z,12.45
2023-05-08T06:02:56.141Z,11.20
2023-05-08T06:05:23.897Z,12.25
2023-05-08T06:07:51.789Z,10.18
2023-05-08T06:10:20.218Z,12.32
2023-05-08T06:12:47.388Z,12.25
2023-05-08T06:15:15.470Z,11.45
2023-05-08T06:17:45.248Z,13.55
2023-05-08T06:20:13.370Z,11.98
2023-05-08T06:22:41.588Z,12.93
2023-05-08T06:25:09.971Z,15.52
2023-05-08T06:27:37.581Z,12.10
2023-05-08T06:30:08.029Z,12.52
2023-05-08T06:32:35.073Z,11.77
2023-05-08T06:35:02.302Z,12.40
2023-05-08T06:37:29.452Z,12.40
2023-05-08T06:40:10.341Z,12.55
2023-05-08T06:42:44.183Z,13.07
2023-05-08T06:45:12.574Z,11.15
2023-05-08T06:47:40.033Z,12.60
2023-05-08T06:50:07.631Z,12.23
2023-05-08T06:52:34.698Z,14.77
2023-05-08T06:55:01.670Z,12.68
2023-05-08T06:57:30.443Z,15.55
2023-05-08T06:59:57.517Z,13.20
2023-05-08T07:02:24.579Z,12.93
2023-05-08T07:05:10.682Z,12.05
2023-05-08T07:07:40.142Z,11.77
2023-05-08T07:10:08.095Z,11.55
2023-05-08T07:12:40.278Z,11.95
2023-05-08T07:15:24.134Z,12.05
2023-05-08T07:17:53.061Z,12.93
2023-05-08T07:20:20.543Z,13.85
2023-05-08T07:22:47.546Z,13.32
2023-05-08T07:25:14.708Z,13.75
2023-05-08T07:27:42.390Z,14.65
2023-05-08T07:30:10.062Z,14.63
2023-05-08T07:32:39.411Z,15.88
2023-05-08T07:35:11.123Z,12.50
2023-05-08T07:37:39.570Z,10.93
2023-05-08T07:40:07.394Z,12.48
2023-05-08T07:42:44.094Z,14.15
2023-05-08T07:45:13.488Z,13.52
2023-05-08T07:47:53.348Z,13.30
2023-05-08T07:50:21.235Z,12.73
2023-05-08T07:52:50.286Z,15.43
2023-05-08T07:55:18.814Z,13.63
2023-05-08T07:57:46.517Z,15.10
2023-05-08T08:00:14.978Z,15.35
2023-05-08T08:02:44.353Z,14.10
2023-05-08T08:05:12.102Z,16.40
2023-05-08T08:07:39.486Z,14.75
2023-05-08T08:10:07.526Z,14.77
2023-05-08T08:12:37.435Z,16.25
2023-05-08T08:15:04.943Z,15.27
2023-05-08T08:17:32.154Z,14.00
2023-05-08T08:19:59.311Z,13.30
2023-05-08T08:22:26.805Z,13.60
2023-05-08T08:24:56.451Z,14.10
2023-05-08T08:27:24.199Z,14.95
2023-05-08T08:29:58.513Z,14.25
2023-05-08T08:32:28.468Z,16.50
2023-05-08T08:34:55.506Z,15.48
2023-05-08T08:37:22.661Z,15.90
2023-05-08T08:39:49.770Z,14.43
2023-05-08T08:42:16.945Z,16.52
2023-05-08T08:44:44.018Z,16.75
2023-05-08T08:47:13.112Z,14.95
2023-05-08T08:49:49.393Z,16.58
2023-05-08T08:52:39.314Z,18.08
2023-05-08T08:55:10.090Z,18.17
2023-05-08T08:57:41.320Z,16.52
2023-05-08T09:00:11.626Z,16.63
2023-05-08T09:02:39.191Z,14.55
2023-05-08T09:05:07.093Z,17.02
2023-05-08T09:07:34.249Z,15.65
2023-05-08T09:10:01.505Z,17.80
2023-05-08T09:12:28.575Z,16.20
2023-05-08T09:14:55.830Z,14.60
2023-05-08T09:17:23.320Z,15.65
2023-05-08T09:19:51.564Z,17.58
2023-05-08T09:22:18.848Z,15.13
2023-05-08T09:25:01.111Z,16.98
2023-05-08T09:27:29.516Z,17.25
2023-05-08T09:30:09.344Z,16.58
2023-05-08T09:32:41.122Z,16.70
2023-05-08T09:35:10.061Z,17.33
2023-05-08T09:37:43.223Z,16.05
2023-05-08T09:40:21.624Z,14.90
2023-05-08T09:42:50.165Z,18.17
2023-05-08T09:45:36.622Z,16.02
2023-05-08T09:48:03.762Z,15.30
2023-05-08T09:50:31.791Z,17.15
2023-05-08T09:52:59.128Z,17.88
2023-05-08T09:55:26.149Z,16.95
2023-05-08T09:57:56.686Z,17.58
2023-05-08T10:03:03.037Z,15.90
2023-05-08T10:05:32.497Z,16.23
2023-05-08T10:08:18.191Z,18.27
2023-05-08T10:10:45.504Z,17.02
2023-05-08T10:13:12.603Z,15.93
2023-05-08T10:15:43.010Z,17.42
2023-05-08T10:18:12.346Z,18.67
2023-05-08T10:20:44.624Z,18.23
2023-05-08T10:23:17.688Z,19.88
2023-05-08T10:25:54.802Z,16.70
2023-05-08T10:28:34.826Z,19.13
2023-05-08T10:31:03.951Z,14.07
2023-05-08T10:33:32.592Z,16.80
2023-05-08T10:36:00.707Z,17.05
2023-05-08T10:38:28.165Z,18.52
2023-05-08T10:40:58.511Z,15.77
2023-05-08T10:43:26.361Z,17.40
2023-05-08T10:45:55.639Z,18.77
2023-05-08T10:48:33.575Z,16.88
2023-05-08T10:51:08.307Z,19.38
2023-05-08T10:53:40.450Z,18.27
2023-05-08T10:56:07.759Z,18.63
2023-05-08T10:58:37.490Z,16.33
2023-05-08T11:01:08.038Z,19.58
2023-05-08T11:03:44.407Z,16.40
2023-05-08T11:06:12.547Z,17.00
2023-05-08T11:08:51.249Z,16.63
2023-05-08T11:11:26.782Z,17.58
2023-05-08T11:14:11.148Z,19.50
2023-05-08T11:17:02.326Z,18.55
2023-05-08T11:19:29.591Z,17.02
2023-05-08T11:22:22.007Z,18.13
2023-05-08T11:24:54.932Z,16.45
2023-05-08T11:28:07.655Z,22.65
2023-05-08T11:30:39.194Z,19.08
2023-05-08T11:33:07.090Z,16.98
2023-05-08T11:35:56.749Z,17.20
2023-05-08T11:38:26.864Z,16.45
2023-05-08T11:40:58.485Z,17.33
2023-05-08T11:43:42.446Z,19.85
2023-05-08T11:46:20.890Z,17.08
2023-05-08T11:48:48.344Z,19.40
2023-05-08T11:51:18.848Z,20.20
2023-05-08T11:53:47.140Z,18.83
2023-05-08T11:56:14.378Z,18.15
2023-05-08T11:58:41.529Z,18.20
2023-05-08T12:01:08.571Z,20.45
2023-05-08T12:03:36.053Z,19.20
2023-05-08T12:06:03.232Z,16.15
2023-05-08T12:08:33.275Z,14.90
2023-05-08T12:11:00.383Z,14.63
2023-05-08T12:13:30.659Z,15.55
2023-05-08T12:18:26.909Z,19.10
2023-05-08T12:20:59.267Z,16.63
2023-05-08T12:23:27.472Z,15.85
2023-05-08T12:25:55.538Z,15.80
2023-05-08T12:28:24.036Z,16.20
2023-05-08T12:30:51.509Z,17.70
2023-05-08T12:33:19.270Z,14.68
2023-05-08T12:35:46.370Z,16.23
2023-05-08T12:38:13.855Z,14.10
2023-05-08T12:40:43.064Z,18.13
2023-05-08T12:43:11.440Z,15.35
2023-05-08T12:45:40.653Z,16.83
2023-05-08T12:48:11.901Z,14.70
2023-05-08T12:50:43.932Z,15.55
2023-05-08T12:53:15.836Z,15.88
2023-05-08T12:55:57.881Z,15.63
2023-05-08T12:58:27.612Z,14.88
2023-05-08T13:01:13.806Z,15.68
2023-05-08T13:03:41.659Z,18.17
2023-05-08T13:06:21.003Z,16.65
2023-05-08T13:08:55.269Z,15.38
2023-05-08T13:11:37.252Z,16.20
2023-05-08T13:14:04.314Z,16.35
2023-05-08T13:16:41.716Z,14.48
2023-05-08T13:19:08.808Z,16.23
2023-05-08T13:21:35.960Z,13.80
2023-05-08T13:24:02.945Z,17.33
2023-05-08T13:26:29.986Z,16.38
2023-05-08T13:28:56.957Z,19.33
2023-05-08T13:31:24.312Z,15.52
2023-05-08T13:33:51.411Z,15.10
2023-05-08T13:36:18.552Z,16.25
2023-05-08T13:38:45.574Z,17.27
2023-05-08T13:41:12.542Z,15.18
2023-05-08T13:43:40.144Z,14.65
2023-05-08T13:46:07.338Z,18.58
2023-05-08T13:48:34.403Z,16.67
2023-05-08T13:51:01.435Z,17.95
2023-05-08T13:53:28.418Z,17.85
2023-05-08T13:55:55.451Z,14.93
2023-05-08T13:58:22.680Z,17.00
2023-05-08T14:00:50.179Z,18.88
2023-05-08T14:03:17.318Z,16.67
2023-05-08T14:05:44.392Z,16.70
2023-05-08T14:08:11.768Z,14.10
2023-05-08T14:10:39.232Z,17.00
2023-05-08T14:13:06.310Z,15.95
2023-05-08T14:15:37.257Z,13.85
2023-05-08T14:18:05.031Z,14.80
2023-05-08T14:20:32.169Z,15.82
2023-05-08T14:23:00.261Z,14.95
2023-05-08T14:25:27.476Z,13.75
2023-05-08T14:27:54.503Z,15.38
2023-05-08T14:30:21.541Z,14.73
2023-05-08T14:32:48.974Z,13.80
2023-05-08T14:35:16.204Z,16.58
2023-05-08T14:37:43.497Z,16.00
2023-05-08T14:40:10.744Z,15.07
2023-05-08T14:42:38.681Z,16.70
2023-05-08T14:45:06.317Z,16.02
2023-05-08T14:47:33.978Z,15.75
2023-05-08T14:50:01.126Z,16.48
2023-05-08T14:52:28.209Z,16.63
2023-05-08T14:54:55.364Z,17.45
2023-05-08T14:57:22.740Z,16.73
2023-05-08T14:59:54.984Z,19.92
2023-05-08T15:02:23.583Z,19.17
2023-05-08T15:04:50.746Z,15.18
2023-05-08T15:07:17.875Z,16.95
2023-05-08T15:09:46.391Z,17.80
2023-05-08T15:12:13.437Z,15.63
2023-05-08T15:14:43.416Z,15.75
2023-05-08T15:17:10.466Z,16.77
2023-05-08T15:19:39.574Z,16.80
2023-05-08T15:22:06.652Z,19.10
2023-05-08T15:24:39.923Z,18.40
2023-05-08T15:27:07.519Z,17.70
2023-05-08T15:29:34.605Z,19.25
2023-05-08T15:32:01.809Z,19.20
2023-05-08T15:34:32.994Z,17.23
2023-05-08T15:37:00.201Z,15.95
2023-05-08T15:39:27.448Z,17.08
2023-05-08T15:41:54.486Z,16.90
2023-05-08T15:44:21.600Z,17.33
2023-05-08T15:46:48.585Z,17.75
2023-05-08T15:49:15.641Z,16.30
2023-05-08T15:51:42.668Z,16.73
2023-05-08T15:54:10.208Z,16.38
2023-05-08T15:56:37.434Z,17.45
2023-05-08T15:59:04.975Z,16.95
2023-05-08T16:01:31.970Z,18.83
2023-05-08T16:03:58.945Z,15.43
2023-05-08T16:06:26.282Z,16.27
2023-05-08T16:08:53.274Z,23.15
2023-05-08T16:11:21.753Z,20.10
2023-05-08T16:14:21.283Z,23.20
2023-05-08T16:16:48.674Z,22.02
2023-05-08T16:19:16.046Z,22.33
2023-05-08T16:21:45.441Z,20.30
2023-05-08T16:24:12.397Z,19.25
2023-05-08T16:26:39.425Z,16.15
2023-05-08T16:29:06.466Z,17.50
2023-05-08T16:31:33.618Z,19.00
2023-05-08T16:34:00.726Z,18.90
2023-05-08T16:36:27.857Z,15.38
2023-05-08T16:38:54.842Z,13.75
2023-05-08T16:41:23.042Z,10.38
2023-05-08T16:43:50.083Z,11.05
2023-05-08T16:46:20.864Z,13.60
2023-05-08T16:48:53.781Z,9.93
2023-05-08T16:51:20.876Z,9.10
2023-05-08T16:53:48.290Z,11.45
2023-05-08T16:56:15.405Z,10.00
2023-05-08T16:58:43.305Z,9.18
2023-05-08T17:01:11.832Z,10.18
2023-05-08T17:03:39.026Z,10.95
2023-05-08T17:06:09.832Z,9.35
2023-05-08T17:08:36.874Z,13.25
2023-05-08T17:11:04.083Z,12.15
2023-05-08T17:13:31.557Z,9.20
2023-05-08T17:15:58.706Z,11.68
2023-05-08T17:18:25.844Z,14.38
2023-05-08T17:20:52.895Z,12.27
2023-05-08T17:23:19.863Z,11.75
2023-05-08T17:25:46.911Z,11.98
2023-05-08T17:28:14.035Z,12.10
2023-05-08T17:30:41.056Z,14.35
2023-05-08T17:33:08.052Z,17.25
2023-05-08T17:35:35.090Z,18.55
2023-05-08T17:38:02.149Z,13.57
2023-05-08T17:40:29.136Z,16.45
2023-05-08T17:42:56.217Z,20.00
2023-05-08T17:45:23.286Z,19.08
2023-05-08T17:47:50.378Z,19.92
2023-05-08T17:50:17.605Z,21.63
2023-05-08T17:52:44.677Z,19.98
2023-05-08T17:55:11.664Z,21.73
2023-05-08T17:57:38.672Z,24.23
2023-05-08T18:00:06.451Z,22.75
2023-05-08T18:02:35.654Z,21.83
2023-05-08T18:05:02.840Z,20.85
2023-05-08T18:07:33.634Z,19.98
2023-05-08T18:10:00.676Z,21.75
2023-05-08T18:12:27.636Z,20.35
2023-05-08T18:14:54.602Z,22.13
2023-05-08T18:17:22.850Z,17.80
2023-05-08T18:19:49.879Z,18.70
2023-05-08T18:22:16.984Z,19.45
2023-05-08T18:24:45.734Z,19.33
2023-05-08T18:27:13.200Z,22.85
2023-05-08T18:29:40.149Z,19.83
2023-05-08T18:32:07.278Z,23.40
2023-05-08T18:34:34.305Z,20.00
2023-05-08T18:37:01.286Z,18.55
2023-05-08T18:39:28.374Z,18.88
2023-05-08T18:41:55.349Z,22.45
2023-05-08T18:44:22.334Z,20.25
2023-05-08T18:46:49.474Z,18.88
2023-05-08T18:49:16.641Z,22.25
2023-05-08T18:51:43.622Z,18.90
2023-05-08T18:54:10.878Z,18.25
2023-05-08T18:56:37.825Z,21.40
2023-05-08T18:59:04.923Z,20.40
2023-05-08T19:01:31.914Z,18.52
2023-05-08T19:03:58.958Z,19.95
2023-05-08T19:06:25.984Z,17.33
2023-05-08T19:08:53.024Z,20.25
2023-05-08T19:11:19.978Z,16.83
2023-05-08T19:13:51.975Z,17.40
2023-05-08T19:16:21.920Z,20.00
2023-05-08T19:18:49.145Z,21.42
2023-05-08T19:21:16.244Z,17.67
2023-05-08T19:23:43.235Z,17.60
2023-05-08T19:26:10.222Z,18.75
2023-05-08T19:28:37.309Z,18.45
2023-05-08T19:31:04.313Z,17.63
2023-05-08T19:33:31.372Z,16.27
2023-05-08T19:35:58.344Z,12.95
2023-05-08T19:38:25.320Z,16.38
2023-05-08T19:40:56.451Z,18.50
2023-05-08T19:43:27.638Z,18.00
2023-05-08T19:45:55.934Z,16.30
2023-05-08T19:48:23.282Z,19.05
2023-05-08T19:50:54.995Z,17.83
2023-05-08T19:53:23.387Z,17.58
2023-05-08T19:55:50.647Z,17.85
2023-05-08T19:58:18.037Z,16.58
2023-05-08T20:00:50.938Z,17.13
2023-05-08T20:03:18.650Z,18.45
2023-05-08T20:05:45.839Z,17.35
2023-05-08T20:08:12.806Z,18.50
2023-05-08T20:10:39.915Z,19.60
2023-05-08T20:13:07.153Z,18.33
2023-05-08T20:15:34.133Z,18.90
2023-05-08T20:18:01.280Z,17.38
2023-05-08T20:20:29.865Z,19.33
2023-05-08T20:22:56.848Z,19.70
2023-05-08T20:25:23.996Z,15.52
2023-05-08T20:27:51.034Z,15.40
2023-05-08T20:30:18.056Z,17.67
2023-05-08T20:32:45.239Z,16.55
2023-05-08T20:35:13.968Z,17.48
2023-05-08T20:37:45.140Z,19.80
2023-05-08T20:40:12.803Z,18.98
2023-05-08T20:42:43.671Z,19.45
2023-05-08T20:47:38.887Z,19.58
2023-05-08T20:50:06.765Z,18.65
2023-05-08T20:52:35.228Z,19.13
2023-05-08T20:55:03.945Z,20.83
2023-05-08T20:57:31.113Z,19.13
2023-05-08T20:59:58.554Z,25.13
2023-05-08T21:02:25.689Z,19.10
2023-05-08T21:04:53.133Z,20.27
2023-05-08T21:07:20.178Z,20.73
2023-05-08T21:09:47.253Z,20.70
2023-05-08T21:12:14.231Z,20.02
2023-05-08T21:14:43.991Z,17.45
2023-05-08T21:17:10.994Z,17.90
2023-05-08T21:19:38.279Z,19.35
2023-05-08T21:22:05.325Z,22.73
2023-05-08T21:24:32.282Z,20.92
2023-05-08T21:26:59.935Z,21.92
2023-05-08T21:29:27.073Z,20.85
2023-05-08T21:31:57.189Z,19.92
2023-05-08T21:34:24.280Z,21.52
2023-05-08T21:36:51.319Z,18.98
2023-05-08T21:39:18.378Z,23.50
2023-05-08T21:41:46.051Z,19.27
2023-05-08T21:44:13.183Z,16.95
2023-05-08T21:46:40.242Z,17.30
2023-05-08T21:49:07.429Z,16.48
2023-05-08T21:51:35.181Z,18.42
2023-05-08T21:54:02.193Z,20.55
2023-05-08T21:56:29.347Z,18.63
2023-05-08T21:58:56.272Z,18.52
2023-05-08T22:01:23.300Z,20.08
2023-05-08T22:03:50.427Z,21.90
2023-05-08T22:06:17.625Z,20.08
2023-05-08T22:08:44.701Z,19.88
2023-05-08T22:11:12.430Z,21.30
2023-05-08T22:13:39.640Z,20.27
2023-05-08T22:16:07.376Z,21.48
2023-05-08T22:18:34.372Z,19.58
2023-05-08T22:21:01.358Z,23.58
2023-05-08T22:23:28.780Z,23.25
2023-05-08T22:25:58.882Z,18.80
2023-05-08T22:28:25.928Z,19.73
2023-05-08T22:30:52.935Z,18.40
2023-05-08T22:33:20.126Z,17.15
2023-05-08T22:35:47.126Z,17.38
2023-05-08T22:38:14.146Z,15.57
2023-05-08T22:40:42.651Z,14.35
2023-05-08T22:43:09.915Z,15.70
2023-05-08T22:45:37.302Z,17.65
2023-05-08T22:48:04.672Z,19.48
2023-05-08T22:50:31.770Z,19.70
2023-05-08T22:52:58.850Z,19.50
2023-05-08T22:55:25.866Z,21.80
2023-05-08T22:57:52.899Z,18.08
2023-05-08T23:00:20.233Z,17.85
2023-05-08T23:02:47.255Z,20.17
2023-05-08T23:05:14.784Z,18.83
2023-05-08T23:07:42.157Z,22.95
2023-05-08T23:10:09.568Z,23.02
2023-05-08T23:12:37.256Z,20.02
2023-05-08T23:15:04.837Z,17.98
2023-05-08T23:17:32.051Z,19.73
2023-05-08T23:19:59.004Z,18.73
2023-05-08T23:22:25.998Z,18.30
2023-05-08T23:24:53.023Z,17.17
2023-05-08T23:27:20.026Z,15.95
2023-05-08T23:29:47.045Z,16.38
2023-05-08T23:32:14.569Z,17.50
2023-05-08T23:34:44.570Z,17.45
2023-05-08T23:37:11.546Z,17.25
2023-05-08T23:39:41.438Z,18.95
2023-05-08T23:42:08.893Z,16.10
2023-05-08T23:44:36.074Z,16.50
2023-05-08T23:47:03.199Z,17.58
2023-05-08T23:49:30.213Z,17.10
2023-05-08T23:51:57.175Z,19.17
2023-05-08T23:54:24.186Z,19.15
2023-05-08T23:56:51.158Z,16.10
2023-05-08T23:59:18.143Z,16.52
